Time;durP1;ratioP1;P1;durP2;ratioP2;P2;SDS_P1;SDS_P2;PMS_P1;PMS_P2;Temp;Humidity;BMP_temperature;BMP_pressure;BME280_temperature;BME280_humidity;BME280_pressure;Samples;Min_cycle;Max_cycle;Signal;HPM_P1;HPM_P2
2023/10/26 00:00:54;;;;;;;2.85;1.60;;;;;;;19.58;53.08;99560.44;5010480;28;20176;-72
2023/10/26 00:03:19;;;;;;;3.63;1.80;;;;;;;19.57;53.09;99566.69;5010054;28;20083;-71
2023/10/26 00:05:44;;;;;;;3.00;1.60;;;;;;;19.57;52.98;99571.19;5010355;28;20585;-71
2023/10/26 00:08:09;;;;;;;3.42;1.90;;;;;;;19.55;53.00;99568.69;5010627;28;20066;-70
2023/10/26 00:10:38;;;;;;;3.33;1.80;;;;;;;19.55;52.93;99573.13;5010477;28;20045;-71
2023/10/26 00:13:03;;;;;;;4.78;2.00;;;;;;;19.54;52.92;99574.97;5010176;28;20032;-71
2023/10/26 00:15:29;;;;;;;4.35;1.95;;;;;;;19.53;52.89;99575.94;5009524;28;20124;-72
2023/10/26 00:17:54;;;;;;;4.22;1.92;;;;;;;19.54;52.60;99585.53;5010302;28;20571;-71
2023/10/26 00:20:19;;;;;;;3.20;1.60;;;;;;;19.54;53.11;99582.88;5010059;28;20037;-71
2023/10/26 00:22:45;;;;;;;3.28;1.80;;;;;;;19.53;52.85;99577.75;5010276;28;20045;-71
2023/10/26 00:25:10;;;;;;;3.55;1.52;;;;;;;19.52;52.85;99589.34;5009792;28;20095;-71
2023/10/26 00:27:40;;;;;;;3.20;1.70;;;;;;;19.53;52.82;99583.06;5010227;28;20029;-71
2023/10/26 00:30:08;;;;;;;3.72;1.85;;;;;;;19.50;52.73;99592.16;5010165;28;20037;-71
2023/10/26 00:32:33;;;;;;;3.45;1.60;;;;;;;19.51;52.81;99595.59;5009551;28;20041;-70
2023/10/26 00:34:58;;;;;;;3.15;1.60;;;;;;;19.50;52.67;99600.06;5009924;28;20128;-70
2023/10/26 00:37:24;;;;;;;3.45;1.80;;;;;;;19.49;52.82;99602.88;5009767;28;20033;-71
2023/10/26 00:39:49;;;;;;;3.45;1.83;;;;;;;19.48;52.90;99607.31;5009935;28;20466;-70
2023/10/26 00:42:14;;;;;;;4.10;1.73;;;;;;;19.49;53.01;99610.81;5009844;28;20025;-70
2023/10/26 00:44:40;;;;;;;6.10;2.20;;;;;;;19.49;52.75;99608.97;5009891;28;20450;-71
2023/10/26 00:47:05;;;;;;;4.18;1.90;;;;;;;19.48;52.89;99614.44;5009723;28;20585;-70
2023/10/26 00:49:32;;;;;;;4.13;1.77;;;;;;;19.47;52.81;99618.91;5009737;28;20429;-71
2023/10/26 00:52:00;;;;;;;3.30;1.88;;;;;;;19.45;52.81;99618.22;5007541;28;20463;-71
2023/10/26 00:54:26;;;;;;;4.63;1.60;;;;;;;19.46;52.64;99619.88;5009821;28;20029;-71
2023/10/26 00:56:52;;;;;;;4.72;1.88;;;;;;;19.46;52.89;99619.88;5009430;28;20049;-71
2023/10/26 00:59:18;;;;;;;3.92;1.90;;;;;;;19.44;52.60;99624.50;5007277;28;20022;-71
2023/10/26 01:01:48;;;;;;;3.20;1.52;;;;;;;19.42;52.74;99628.28;5008482;28;20074;-69
2023/10/26 01:04:14;;;;;;;3.15;1.63;;;;;;;19.44;52.73;99628.94;5009568;28;20775;-71
2023/10/26 01:06:40;;;;;;;3.55;1.83;;;;;;;19.42;52.63;99631.75;5008894;28;20022;-70
2023/10/26 01:09:06;;;;;;;2.90;1.60;;;;;;;19.44;52.70;99628.94;5009442;28;20037;-71
2023/10/26 01:11:32;;;;;;;3.65;1.60;;;;;;;19.42;52.65;99625.66;5009259;28;20037;-70
2023/10/26 01:13:58;;;;;;;3.92;1.65;;;;;;;19.42;52.69;99625.66;5009335;28;20108;-70
2023/10/26 01:16:24;;;;;;;3.05;1.55;;;;;;;19.42;52.50;99631.75;5008986;28;21011;-71
2023/10/26 01:18:49;;;;;;;3.00;1.70;;;;;;;19.42;52.68;99629.09;5008690;28;20671;-70
2023/10/26 01:21:14;;;;;;;3.25;1.60;;;;;;;19.38;52.58;99618.03;5009305;28;20057;-70
2023/10/26 01:23:40;;;;;;;3.60;1.63;;;;;;;19.39;52.68;99619.72;5009302;28;20390;-70
2023/10/26 01:26:05;;;;;;;3.08;1.58;;;;;;;19.41;52.67;99616.91;5008971;28;20041;-71
2023/10/26 01:28:30;;;;;;;3.13;1.80;;;;;;;19.40;52.60;99617.88;5008916;28;20064;-71
2023/10/26 01:30:56;;;;;;;4.13;1.50;;;;;;;19.40;52.47;99625.81;5009310;28;20030;-70
2023/10/26 01:33:21;;;;;;;2.97;1.63;;;;;;;19.39;52.58;99629.44;5008565;28;20104;-71
2023/10/26 01:35:47;;;;;;;2.85;1.60;;;;;;;19.37;52.50;99631.41;5009001;28;20030;-71
2023/10/26 01:38:13;;;;;;;2.92;1.65;;;;;;;19.39;52.50;99629.44;5009006;28;20038;-71
2023/10/26 01:40:39;;;;;;;3.00;1.50;;;;;;;19.37;52.50;99623.50;5008561;28;20053;-70
2023/10/26 01:43:04;;;;;;;3.40;1.77;;;;;;;19.35;52.64;99625.47;5007218;28;20107;-70
2023/10/26 01:45:30;;;;;;;2.70;1.40;;;;;;;19.36;52.43;99632.41;5008309;28;20065;-70
2023/10/26 01:47:55;;;;;;;3.13;1.70;;;;;;;19.35;52.49;99634.22;5008802;28;20033;-70
2023/10/26 01:50:21;;;;;;;3.25;1.80;;;;;;;19.35;52.42;99636.84;5008561;28;20036;-70
2023/10/26 01:52:46;;;;;;;3.08;1.63;;;;;;;19.34;52.57;99637.88;5008539;28;20459;-72
2023/10/26 01:55:11;;;;;;;4.00;1.90;;;;;;;19.34;52.38;99629.94;5008441;28;20121;-70
2023/10/26 01:57:36;;;;;;;3.42;1.60;;;;;;;19.32;52.31;99626.63;5008152;28;20041;-71
2023/10/26 02:00:03;;;;;;;3.30;1.80;;;;;;;19.34;52.13;99629.09;5008420;28;20033;-70
2023/10/26 02:02:28;;;;;;;3.67;1.75;;;;;;;19.32;52.34;99634.53;5006920;28;20267;-71
2023/10/26 02:04:54;;;;;;;2.90;1.58;;;;;;;19.32;52.32;99634.53;5008685;28;20485;-71
2023/10/26 02:07:20;;;;;;;5.70;2.00;;;;;;;19.32;52.33;99628.44;5008361;28;20045;-71
2023/10/26 02:09:45;;;;;;;3.63;1.70;;;;;;;19.30;52.19;99620.69;5008446;28;20034;-71
2023/10/26 02:12:10;;;;;;;3.13;1.80;;;;;;;19.30;52.28;99620.69;5007843;28;20799;-71
2023/10/26 02:14:36;;;;;;;2.67;1.42;;;;;;;19.31;52.14;99618.84;5007010;28;20334;-70
2023/10/26 02:17:01;;;;;;;3.15;1.73;;;;;;;19.29;52.18;99610.28;5007699;28;20022;-71
2023/10/26 02:19:26;;;;;;;3.30;1.67;;;;;;;19.29;52.12;99619.00;5007247;28;20030;-70
2023/10/26 02:21:51;;;;;;;4.13;1.88;;;;;;;19.30;52.13;99619.84;5007794;28;20136;-71
2023/10/26 02:24:17;;;;;;;2.67;1.58;;;;;;;19.29;52.05;99618.19;5007471;28;20037;-71
2023/10/26 02:26:42;;;;;;;3.30;1.60;;;;;;;19.29;52.06;99623.47;5007578;28;20109;-71
2023/10/26 02:29:07;;;;;;;4.50;1.77;;;;;;;19.27;52.27;99613.06;5008035;28;20116;-70
2023/10/26 02:31:33;;;;;;;3.10;1.80;;;;;;;19.27;52.06;99613.06;5007759;28;20467;-70
2023/10/26 02:33:58;;;;;;;3.25;1.63;;;;;;;19.26;52.10;99613.22;5007739;28;20050;-70
2023/10/26 02:36:23;;;;;;;3.20;1.73;;;;;;;19.26;52.01;99607.94;5007132;28;20033;-70
2023/10/26 02:38:49;;;;;;;3.22;1.75;;;;;;;19.26;51.94;99611.41;5007807;28;20550;-70
2023/10/26 02:41:14;;;;;;;3.22;1.73;;;;;;;19.24;51.96;99616.03;5007298;28;20040;-71
2023/10/26 02:43:39;;;;;;;3.17;1.55;;;;;;;19.25;51.81;99614.22;5007177;28;20121;-70
2023/10/26 02:46:05;;;;;;;3.20;1.75;;;;;;;19.25;52.02;99612.41;5007458;28;20491;-70
2023/10/26 02:48:31;;;;;;;3.53;1.45;;;;;;;19.24;51.96;99610.75;5006129;28;20479;-71
2023/10/26 02:50:56;;;;;;;3.55;1.70;;;;;;;19.24;51.95;99612.56;5007524;28;20037;-70
2023/10/26 02:53:22;;;;;;;3.53;1.77;;;;;;;19.22;51.90;99612.72;5007519;28;20029;-71
2023/10/26 02:55:47;;;;;;;3.42;1.90;;;;;;;19.23;51.77;99616.19;5007653;28;20029;-71
2023/10/26 02:58:13;;;;;;;3.38;1.60;;;;;;;19.20;51.81;99609.41;5007528;28;20073;-71
2023/10/26 03:00:38;;;;;;;4.35;2.00;;;;;;;19.21;51.58;99605.78;5007223;28;20455;-70
2023/10/26 03:03:03;;;;;;;3.40;1.60;;;;;;;19.20;51.44;99607.63;5007672;28;20083;-71
2023/10/26 03:05:29;;;;;;;3.35;1.75;;;;;;;19.20;51.59;99604.97;5007498;28;20278;-71
2023/10/26 03:07:55;;;;;;;3.20;1.63;;;;;;;19.20;51.77;99604.13;5006623;28;20042;-71
2023/10/26 03:10:20;;;;;;;2.40;1.30;;;;;;;19.20;51.49;99607.63;5005598;28;20125;-71
2023/10/26 03:12:47;;;;;;;2.70;1.60;;;;;;;19.20;51.59;99609.41;5007005;28;20381;-70
2023/10/26 03:15:12;;;;;;;3.55;1.80;;;;;;;19.18;51.73;99614.03;5007009;28;20034;-70
2023/10/26 03:17:38;;;;;;;3.83;1.75;;;;;;;19.16;51.75;99614.19;5006597;28;20080;-70
2023/10/26 03:20:05;;;;;;;3.17;1.67;;;;;;;19.18;51.32;99619.31;5005514;28;20069;-70
2023/10/26 03:22:31;;;;;;;3.92;1.98;;;;;;;19.16;51.54;99616.84;5007097;28;20025;-70
2023/10/26 03:24:57;;;;;;;4.15;1.80;;;;;;;19.16;51.55;99616.84;5006654;28;20582;-71
2023/10/26 03:27:22;;;;;;;3.60;1.80;;;;;;;19.15;51.45;99615.19;5006890;28;20133;-71
2023/10/26 03:29:47;;;;;;;3.50;1.80;;;;;;;19.15;51.55;99614.34;5006541;28;20113;-70
2023/10/26 03:32:13;;;;;;;3.85;1.88;;;;;;;19.17;51.43;99615.03;5006922;28;20482;-71
2023/10/26 03:34:38;;;;;;;3.40;1.70;;;;;;;19.14;51.54;99618.81;5006423;28;20046;-71
2023/10/26 03:37:03;;;;;;;3.58;1.77;;;;;;;19.13;51.35;99611.88;5006870;28;20386;-71
2023/10/26 03:39:29;;;;;;;3.50;1.80;;;;;;;19.13;51.42;99603.13;5006764;28;20152;-70
2023/10/26 03:41:55;;;;;;;4.68;1.70;;;;;;;19.14;51.27;99602.16;5006819;28;20125;-70
2023/10/26 03:44:20;;;;;;;3.80;1.67;;;;;;;19.12;51.21;99596.19;5006177;28;20033;-69
2023/10/26 03:46:46;;;;;;;3.95;1.88;;;;;;;19.11;51.27;99605.94;5006621;28;20359;-70
2023/10/26 03:49:12;;;;;;;3.50;1.63;;;;;;;19.11;51.09;99605.94;5006986;28;20033;-70
2023/10/26 03:51:37;;;;;;;2.85;1.70;;;;;;;19.12;51.10;99596.19;5006497;28;20034;-70
2023/10/26 03:54:03;;;;;;;3.40;1.90;;;;;;;19.10;51.24;99588.44;5006491;28;20486;-70
2023/10/26 03:56:29;;;;;;;3.25;1.70;;;;;;;19.12;51.22;99590.91;5006719;28;20030;-71
2023/10/26 03:58:54;;;;;;;3.92;1.80;;;;;;;19.10;51.10;99580.50;5006517;28;20026;-70
2023/10/26 04:01:20;;;;;;;3.17;1.80;;;;;;;19.09;51.03;99581.50;5005090;28;20462;-71
2023/10/26 04:03:45;;;;;;;4.10;1.80;;;;;;;19.09;51.37;99573.59;5006327;28;20048;-71
2023/10/26 04:06:10;;;;;;;2.90;1.63;;;;;;;19.10;51.17;99577.03;5006543;28;20037;-70
2023/10/26 04:08:37;;;;;;;3.50;1.90;;;;;;;19.09;51.01;99578.03;5006820;28;20029;-72
2023/10/26 04:11:02;;;;;;;2.63;1.60;;;;;;;19.09;51.13;99578.03;5006244;28;20442;-70
2023/10/26 04:13:30;;;;;;;4.35;1.80;;;;;;;19.09;50.98;99565.66;5006148;28;20033;-70
2023/10/26 04:16:00;;;;;;;3.40;1.73;;;;;;;19.06;50.86;99568.63;5006488;28;20105;-71
2023/10/26 04:18:25;;;;;;;3.42;1.80;;;;;;;19.08;51.15;99568.47;5006678;28;20037;-71
2023/10/26 04:20:51;;;;;;;3.20;1.80;;;;;;;19.06;51.03;99575.69;5006239;28;20030;-70
2023/10/26 04:23:16;;;;;;;3.65;1.98;;;;;;;19.06;51.00;99576.56;5006798;28;20076;-70
2023/10/26 04:25:41;;;;;;;3.80;2.13;;;;;;;19.06;50.88;99575.69;5006044;28;20037;-71
2023/10/26 04:28:06;;;;;;;2.92;1.63;;;;;;;19.05;50.82;99576.72;5006567;28;20037;-70
2023/10/26 04:30:32;;;;;;;3.92;1.88;;;;;;;19.05;51.05;99584.63;5005965;28;20121;-71
2023/10/26 04:32:57;;;;;;;3.92;2.10;;;;;;;19.03;51.07;99582.16;5006341;28;20044;-71
2023/10/26 04:35:22;;;;;;;3.58;2.00;;;;;;;19.05;50.96;99585.44;5006157;28;20100;-70
2023/10/26 04:37:48;;;;;;;3.33;2.00;;;;;;;19.04;50.90;99583.78;5005630;28;20084;-70
2023/10/26 04:40:13;;;;;;;3.58;2.13;;;;;;;19.03;51.17;99588.25;5005939;28;20065;-71
2023/10/26 04:42:38;;;;;;;3.30;1.73;;;;;;;19.03;50.74;99590.06;5007479;28;20072;-71
2023/10/26 04:45:04;;;;;;;3.55;1.70;;;;;;;19.01;50.95;99589.41;5009720;28;20125;-71
2023/10/26 04:47:29;;;;;;;2.95;1.77;;;;;;;19.02;50.91;99588.41;5009453;28;20064;-71
2023/10/26 04:49:54;;;;;;;4.70;1.88;;;;;;;19.01;50.88;99584.94;5009494;28;20040;-70
2023/10/26 04:52:20;;;;;;;3.58;2.10;;;;;;;19.01;50.86;99590.22;5006644;28;20046;-69
2023/10/26 04:54:46;;;;;;;3.60;1.83;;;;;;;19.00;50.94;99578.00;4996250;28;20467;-69
2023/10/26 04:57:11;;;;;;;4.03;1.83;;;;;;;18.99;50.73;99575.53;4996185;28;20109;-71
2023/10/26 04:59:36;;;;;;;3.45;1.80;;;;;;;19.00;50.85;99580.66;4996402;28;20512;-70
2023/10/26 05:02:01;;;;;;;2.88;1.65;;;;;;;19.00;50.75;99582.47;4994394;28;20034;-71
2023/10/26 05:04:27;;;;;;;3.08;1.70;;;;;;;19.00;50.75;99582.47;4996226;28;20034;-70
2023/10/26 05:06:52;;;;;;;2.78;1.35;;;;;;;18.98;50.84;99577.34;4996202;28;20033;-71
2023/10/26 05:09:17;;;;;;;3.10;1.50;;;;;;;18.98;50.86;99580.00;4996475;28;20396;-71
2023/10/26 05:11:43;;;;;;;2.42;1.30;;;;;;;18.98;50.71;99581.81;5004127;28;20041;-70
2023/10/26 05:14:09;;;;;;;3.05;1.65;;;;;;;18.97;50.81;99573.03;5008870;28;20030;-70
2023/10/26 05:16:34;;;;;;;3.17;1.60;;;;;;;18.96;50.70;99563.50;5007719;28;20370;-70
2023/10/26 05:19:00;;;;;;;3.97;1.50;;;;;;;18.97;50.56;99559.03;5005637;28;20084;-70
2023/10/26 05:21:25;;;;;;;2.70;1.30;;;;;;;18.97;50.65;99569.59;5009151;28;20029;-71
2023/10/26 05:23:50;;;;;;;3.95;1.75;;;;;;;18.99;50.79;99565.81;5007184;28;20026;-71
2023/10/26 05:26:16;;;;;;;3.08;1.40;;;;;;;19.01;50.92;99569.09;5008530;28;20343;-70
2023/10/26 05:28:42;;;;;;;2.22;1.25;;;;;;;19.03;50.87;99567.13;5008906;28;20117;-70
2023/10/26 05:31:07;;;;;;;2.65;1.30;;;;;;;19.05;50.59;99563.50;5008219;28;20394;-71
2023/10/26 05:33:33;;;;;;;2.40;1.33;;;;;;;19.07;50.75;99554.41;5008391;28;20057;-70
2023/10/26 05:35:58;;;;;;;2.20;1.20;;;;;;;19.07;51.06;99559.69;5008563;28;20084;-71
2023/10/26 05:38:23;;;;;;;3.05;1.30;;;;;;;19.08;51.00;99558.72;5008695;28;20045;-71
2023/10/26 05:40:54;;;;;;;2.55;1.40;;;;;;;19.08;51.05;99564.00;5008791;28;20033;-70
2023/10/26 05:43:19;;;;;;;2.17;1.20;;;;;;;19.09;51.23;99565.66;5007645;28;20038;-70
2023/10/26 05:45:44;;;;;;;1.80;1.10;;;;;;;19.07;51.22;99559.69;5008661;28;20042;-70
2023/10/26 05:48:10;;;;;;;2.30;1.27;;;;;;;19.09;51.43;99565.66;5007794;28;20025;-71
2023/10/26 05:50:40;;;;;;;1.73;1.10;;;;;;;19.10;51.35;99559.38;5008218;28;20029;-70
2023/10/26 05:53:06;;;;;;;2.92;1.00;;;;;;;19.12;51.65;99565.34;5008037;28;20041;-71
2023/10/26 05:55:31;;;;;;;2.33;1.15;;;;;;;19.11;51.38;99557.59;5008096;28;20052;-70
2023/10/26 05:57:57;;;;;;;2.70;1.20;;;;;;;19.13;51.58;99548.50;5008145;28;20025;-71
2023/10/26 06:00:22;;;;;;;2.22;1.00;;;;;;;19.15;51.74;99549.19;5008192;28;20120;-71
2023/10/26 06:02:47;;;;;;;1.70;0.90;;;;;;;19.16;51.54;99545.53;5005114;28;20087;-71
2023/10/26 06:05:12;;;;;;;1.60;1.00;;;;;;;19.17;51.67;99533.16;5006067;28;20069;-71
2023/10/26 06:07:38;;;;;;;1.85;1.08;;;;;;;19.18;51.37;99540.94;5007774;28;20263;-71
2023/10/26 06:10:05;;;;;;;2.20;1.00;;;;;;;19.17;51.50;99547.19;5007784;28;20077;-70
2023/10/26 06:12:31;;;;;;;1.45;1.00;;;;;;;19.20;51.54;99554.78;5007858;28;20683;-71
2023/10/26 06:14:56;;;;;;;2.10;0.90;;;;;;;19.21;51.43;99545.03;5008186;28;20026;-71
2023/10/26 06:17:21;;;;;;;2.05;1.10;;;;;;;19.22;51.51;99557.28;5008016;28;20034;-71
2023/10/26 06:19:47;;;;;;;2.15;1.10;;;;;;;19.23;51.38;99552.81;5007985;28;20072;-72
2023/10/26 06:22:12;;;;;;;1.27;0.82;;;;;;;19.23;51.46;99543.06;5007627;28;20030;-72
2023/10/26 06:24:37;;;;;;;1.90;1.00;;;;;;;19.19;51.48;99545.19;5006291;28;20033;-71
2023/10/26 06:27:03;;;;;;;3.53;1.13;;;;;;;19.21;51.58;99545.03;5005133;28;20137;-70
2023/10/26 06:29:28;;;;;;;2.65;1.25;;;;;;;19.23;50.98;99544.88;5007687;28;20491;-72
2023/10/26 06:31:55;;;;;;;2.28;1.20;;;;;;;19.24;50.80;99535.97;5007612;28;20045;-71
2023/10/26 06:34:20;;;;;;;2.28;1.10;;;;;;;19.26;51.05;99531.34;5007025;28;20112;-69
2023/10/26 06:36:46;;;;;;;2.67;1.20;;;;;;;19.26;51.48;99540.09;5004931;28;20422;-71
2023/10/26 06:39:11;;;;;;;2.80;1.52;;;;;;;19.26;51.04;99544.56;5005083;28;20018;-70
2023/10/26 06:41:37;;;;;;;2.83;1.30;;;;;;;19.25;51.34;99549.03;5007692;28;20037;-71
2023/10/26 06:44:02;;;;;;;2.60;1.30;;;;;;;19.27;51.31;99551.50;5013116;28;20488;-69
2023/10/26 06:46:28;;;;;;;2.13;1.08;;;;;;;19.27;51.51;99547.03;5012882;28;20033;-69
2023/10/26 06:48:54;;;;;;;2.55;1.20;;;;;;;19.26;51.58;99544.56;5012296;28;20076;-70
2023/10/26 06:51:19;;;;;;;4.65;1.30;;;;;;;19.29;51.41;99538.94;5013245;28;20112;-71
2023/10/26 06:53:45;;;;;;;4.68;1.33;;;;;;;19.29;51.72;99541.59;5013955;28;20168;-68
2023/10/26 06:56:13;;;;;;;2.55;1.20;;;;;;;19.29;51.51;99546.88;5013692;28;20091;-72
2023/10/26 06:58:43;;;;;;;2.05;1.20;;;;;;;19.29;51.56;99542.41;5013994;28;20036;-69
2023/10/26 07:01:08;;;;;;;2.50;1.27;;;;;;;19.30;51.52;99537.97;5012796;28;20022;-71
2023/10/26 07:03:34;;;;;;;2.08;0.98;;;;;;;19.30;51.88;99543.25;5011152;28;20037;-70
2023/10/26 07:06:03;;;;;;;3.03;1.40;;;;;;;19.29;51.78;99537.13;5013529;28;20030;-69
2023/10/26 07:08:29;;;;;;;2.30;1.15;;;;;;;19.31;51.66;99531.69;5013646;28;20458;-70
2023/10/26 07:10:54;;;;;;;2.28;1.08;;;;;;;19.31;51.83;99532.53;5013813;28;20026;-69
2023/10/26 07:13:20;;;;;;;2.95;1.40;;;;;;;19.31;52.01;99529.03;5013509;28;20433;-68
2023/10/26 07:15:45;;;;;;;2.63;1.20;;;;;;;19.32;51.76;99533.34;5013358;28;20030;-70
2023/10/26 07:18:12;;;;;;;2.47;1.20;;;;;;;19.32;52.11;99541.25;5013216;28;20072;-69
2023/10/26 07:20:38;;;;;;;3.17;1.42;;;;;;;19.32;51.98;99544.72;5012013;28;20030;-70
2023/10/26 07:23:03;;;;;;;2.78;1.30;;;;;;;19.34;51.89;99548.06;4992175;28;20444;-70
2023/10/26 07:25:29;;;;;;;2.70;1.17;;;;;;;19.32;52.31;99541.25;4993349;28;20034;-67
2023/10/26 07:27:54;;;;;;;4.03;1.20;;;;;;;19.34;52.77;99536.63;4991186;28;20266;-71
2023/10/26 07:30:20;;;;;;;3.10;1.25;;;;;;;19.34;52.33;99540.13;4992339;28;20026;-70
2023/10/26 07:32:45;;;;;;;2.58;1.15;;;;;;;19.35;52.36;99546.22;4993470;28;20531;-71
2023/10/26 07:35:11;;;;;;;3.72;1.30;;;;;;;19.34;52.22;99544.56;4993855;28;20053;-71
2023/10/26 07:37:37;;;;;;;2.95;1.40;;;;;;;19.38;52.20;99545.91;4990973;28;20045;-72
2023/10/26 07:40:03;;;;;;;3.15;1.50;;;;;;;19.35;52.11;99535.66;5000715;28;20056;-71
2023/10/26 07:42:29;;;;;;;3.55;1.40;;;;;;;19.29;52.41;99544.22;4999413;28;20069;-71
2023/10/26 07:44:54;;;;;;;4.35;1.45;;;;;;;19.25;52.54;99530.53;4992981;28;20054;-71
2023/10/26 07:47:19;;;;;;;5.43;1.60;;;;;;;19.26;52.51;99537.44;4992797;28;20038;-72
2023/10/26 07:49:45;;;;;;;2.85;1.50;;;;;;;19.25;52.66;99545.53;4992877;28;20517;-71
2023/10/26 07:52:10;;;;;;;2.70;1.33;;;;;;;19.23;52.76;99555.44;4993006;28;20070;-69
2023/10/26 07:54:35;;;;;;;2.60;1.48;;;;;;;19.17;52.85;99560.41;4992993;28;20030;-71
2023/10/26 07:57:01;;;;;;;3.15;1.50;;;;;;;19.16;52.98;99558.72;4993117;28;20030;-72
2023/10/26 07:59:26;;;;;;;2.47;1.15;;;;;;;19.16;52.94;99557.91;4992835;28;20471;-71
2023/10/26 08:01:52;;;;;;;3.15;1.65;;;;;;;19.15;52.86;99572.09;4991174;28;20117;-69
2023/10/26 08:04:17;;;;;;;3.22;1.38;;;;;;;19.19;52.68;99563.69;4992840;28;20035;-69
2023/10/26 08:06:42;;;;;;;4.60;1.40;;;;;;;19.21;53.05;99567.00;4992972;28;20435;-69
2023/10/26 08:09:08;;;;;;;4.30;1.80;;;;;;;19.23;52.62;99573.94;4991918;28;20089;-70
2023/10/26 08:11:34;;;;;;;3.58;1.55;;;;;;;19.23;52.76;99577.38;4993035;28;20085;-70
2023/10/26 08:13:59;;;;;;;4.53;1.73;;;;;;;19.20;52.79;99570.63;4992653;28;20038;-69
2023/10/26 08:16:25;;;;;;;3.35;1.55;;;;;;;19.24;52.85;99575.59;4993300;28;20027;-71
2023/10/26 08:18:50;;;;;;;5.17;1.80;;;;;;;19.24;52.77;99573.78;4996423;28;20061;-71
2023/10/26 08:21:15;;;;;;;3.85;1.92;;;;;;;19.23;52.75;99572.09;4996655;28;20807;-69
2023/10/26 08:23:40;;;;;;;4.20;1.73;;;;;;;19.27;52.86;99575.28;4997725;28;20022;-70
2023/10/26 08:26:07;;;;;;;3.80;1.67;;;;;;;19.28;52.67;99575.13;4993942;28;20026;-72
2023/10/26 08:28:33;;;;;;;5.07;1.80;;;;;;;19.39;52.57;99574.78;5010353;28;20264;-70
2023/10/26 08:31:00;;;;;;;3.30;1.73;;;;;;;19.51;52.15;99577.94;5013991;28;20033;-71
2023/10/26 08:33:26;;;;;;;4.72;1.80;;;;;;;19.58;51.94;99571.00;5014996;28;20049;-71
2023/10/26 08:35:51;;;;;;;5.55;1.90;;;;;;;19.62;51.69;99571.50;5016203;28;20030;-71
2023/10/26 08:38:17;;;;;;;4.25;2.00;;;;;;;19.64;51.67;99572.16;5015188;28;20111;-71
2023/10/26 08:40:53;;;;;;;4.20;2.05;;;;;;;19.62;51.57;99570.69;5016328;28;20034;-70
2023/10/26 08:43:21;;;;;;;4.53;2.22;;;;;;;19.62;51.59;99575.97;5015647;28;20080;-71
2023/10/26 08:45:47;;;;;;;4.32;2.35;;;;;;;19.62;51.48;99579.44;5011470;28;20061;-72
2023/10/26 08:48:17;;;;;;;8.23;2.50;;;;;;;19.57;51.90;99573.81;5007343;28;20163;-72
2023/10/26 08:50:49;;;;;;;4.38;2.13;;;;;;;19.57;51.60;99563.25;5009720;28;20033;-72
2023/10/26 08:53:15;;;;;;;4.28;2.25;;;;;;;19.58;51.52;99568.38;5009594;28;20034;-72
2023/10/26 08:55:42;;;;;;;4.72;2.40;;;;;;;19.56;51.72;99567.69;5009775;28;20472;-72
2023/10/26 08:58:08;;;;;;;4.82;2.70;;;;;;;19.57;52.04;99576.47;5009417;28;20030;-70
2023/10/26 09:00:40;;;;;;;4.45;2.33;;;;;;;19.56;51.76;99566.88;5009690;28;20175;-72
2023/10/26 09:03:06;;;;;;;6.10;2.10;;;;;;;19.56;51.56;99558.94;5009405;28;20541;-71
2023/10/26 09:05:55;;;;;;;5.93;2.70;;;;;;;19.54;51.53;99558.28;5009831;28;20144;-71
2023/10/26 09:08:23;;;;;;;5.63;2.67;;;;;;;19.48;51.92;99561.59;4999976;28;20032;-72
2023/10/26 09:10:49;;;;;;;4.55;2.67;;;;;;;19.36;52.34;99567.19;5007850;28;20030;-72
2023/10/26 09:13:22;;;;;;;5.82;2.53;;;;;;;19.25;52.53;99566.66;5007088;28;20478;-71
2023/10/26 09:15:50;;;;;;;5.95;3.10;;;;;;;19.20;52.54;99568.00;5007798;28;20030;-72
2023/10/26 09:18:15;;;;;;;5.35;3.08;;;;;;;19.16;52.91;99566.66;5006945;28;20038;-70
2023/10/26 09:20:43;;;;;;;7.82;3.35;;;;;;;19.16;52.79;99558.72;5007474;28;20036;-68
2023/10/26 09:23:26;;;;;;;5.45;2.58;;;;;;;19.14;52.92;99560.72;5006613;28;20543;-68
2023/10/26 09:26:03;;;;;;;5.28;3.10;;;;;;;19.13;53.17;99563.53;5008174;28;20025;-72
2023/10/26 09:28:29;;;;;;;6.65;2.92;;;;;;;19.15;52.91;99559.75;5004978;28;20049;-70
2023/10/26 09:30:59;;;;;;;5.03;2.72;;;;;;;19.12;52.96;99562.69;5006947;28;20129;-68
2023/10/26 09:33:26;;;;;;;4.72;2.78;;;;;;;19.13;52.95;99563.53;5005623;28;20049;-72
2023/10/26 09:35:52;;;;;;;5.75;2.75;;;;;;;19.14;53.09;99562.53;5007920;28;20072;-69
2023/10/26 09:38:33;;;;;;;10.13;3.08;;;;;;;19.12;53.20;99570.63;5007097;28;20042;-69
2023/10/26 09:40:59;;;;;;;6.55;3.28;;;;;;;19.13;52.53;99564.34;5006246;28;20152;-71
2023/10/26 09:43:24;;;;;;;4.85;2.90;;;;;;;19.25;52.59;99564.03;5004996;28;20494;-69
2023/10/26 09:45:50;;;;;;;5.85;3.13;;;;;;;19.36;52.21;99558.44;5007013;28;20062;-70
2023/10/26 09:48:16;;;;;;;6.25;3.60;;;;;;;19.40;51.81;99552.66;5006249;28;20030;-70
2023/10/26 09:50:45;;;;;;;5.53;3.25;;;;;;;19.43;51.90;99548.88;5008020;28;20145;-70
2023/10/26 09:53:11;;;;;;;5.20;2.90;;;;;;;19.44;51.62;99539.13;5006901;28;20053;-70
2023/10/26 09:55:37;;;;;;;7.15;3.00;;;;;;;19.47;51.71;99541.44;5008054;28;20076;-71
2023/10/26 09:58:06;;;;;;;5.10;2.83;;;;;;;19.48;51.72;99537.81;5007417;28;20034;-70
2023/10/26 10:00:33;;;;;;;9.98;3.17;;;;;;;19.47;51.55;99542.28;5008034;28;20470;-69
2023/10/26 10:03:13;;;;;;;6.18;3.05;;;;;;;19.47;51.52;99541.44;5007734;28;20052;-69
2023/10/26 10:05:41;;;;;;;6.18;2.92;;;;;;;19.48;51.51;99538.63;5007337;28;20390;-70
2023/10/26 10:08:07;;;;;;;5.50;3.00;;;;;;;19.48;51.60;99535.97;5006807;28;20069;-71
2023/10/26 10:10:33;;;;;;;4.97;2.88;;;;;;;19.48;51.51;99532.53;5007282;28;20498;-68
2023/10/26 10:12:59;;;;;;;5.13;2.72;;;;;;;19.48;51.49;99527.22;5006327;28;20077;-69
2023/10/26 10:15:35;;;;;;;5.63;2.75;;;;;;;19.45;51.60;99527.56;5007832;28;20068;-69
2023/10/26 10:18:02;;;;;;;6.22;3.10;;;;;;;19.45;51.53;99527.56;5006464;28;20488;-69
2023/10/26 10:20:30;;;;;;;5.03;2.90;;;;;;;19.45;51.42;99525.75;5007900;28;20482;-70
2023/10/26 10:22:58;;;;;;;5.00;3.10;;;;;;;19.43;51.40;99527.72;5007234;28;20041;-69
2023/10/26 10:25:50;;;;;;;4.95;2.83;;;;;;;19.44;51.40;99520.63;5007166;28;20037;-69
2023/10/26 10:28:16;;;;;;;4.50;2.42;;;;;;;19.44;51.42;99510.91;5006841;28;20112;-69
2023/10/26 10:30:56;;;;;;;5.65;2.80;;;;;;;19.43;51.37;99508.41;5006819;28;20545;-69
2023/10/26 10:33:27;;;;;;;5.07;2.90;;;;;;;19.42;51.34;99501.47;5007103;28;20049;-69
2023/10/26 10:36:00;;;;;;;5.18;2.80;;;;;;;19.42;51.19;99507.56;5006968;28;20443;-68
2023/10/26 10:38:26;;;;;;;4.82;3.00;;;;;;;19.40;51.50;99506.91;5006043;28;20146;-70
2023/10/26 10:40:55;;;;;;;4.82;2.50;;;;;;;19.40;51.20;99510.38;5006878;28;20247;-70
2023/10/26 10:43:35;;;;;;;5.72;3.70;;;;;;;19.40;51.49;99504.28;5007141;28;20493;-69
2023/10/26 10:46:20;;;;;;;6.47;2.75;;;;;;;19.40;51.38;99497.16;5012046;28;20411;-69
2023/10/26 10:49:03;;;;;;;6.55;2.78;;;;;;;19.39;51.50;99494.69;5012465;28;20084;-70
2023/10/26 10:51:41;;;;;;;4.95;2.95;;;;;;;19.40;51.62;99497.16;5014061;28;20026;-69
2023/10/26 10:54:09;;;;;;;4.45;2.25;;;;;;;19.40;51.50;99486.59;5013705;28;20037;-69
2023/10/26 10:56:42;;;;;;;6.15;2.92;;;;;;;19.40;51.66;99488.44;5013634;28;20092;-69
2023/10/26 10:59:17;;;;;;;5.47;3.00;;;;;;;19.39;52.07;99487.63;5014019;28;20092;-69
2023/10/26 11:01:43;;;;;;;7.72;3.50;;;;;;;19.36;52.10;99476.56;5005094;28;20034;-70
2023/10/26 11:04:12;;;;;;;7.53;3.90;;;;;;;19.32;52.30;99483.97;5006211;28;20037;-68
2023/10/26 11:06:45;;;;;;;9.57;3.75;;;;;;;19.25;52.65;99480.34;5006859;28;20034;-70
2023/10/26 11:09:37;;;;;;;8.45;3.92;;;;;;;19.17;52.83;99480.34;5006270;28;20113;-70
2023/10/26 11:12:10;;;;;;;10.32;4.15;;;;;;;19.12;53.23;99488.75;5006052;28;20490;-68
2023/10/26 11:14:36;;;;;;;8.85;4.15;;;;;;;19.09;53.21;99488.25;5006569;28;20038;-68
2023/10/26 11:17:01;;;;;;;7.93;3.60;;;;;;;19.05;53.61;99484.28;5005740;28;20041;-69
2023/10/26 11:19:27;;;;;;;8.45;3.85;;;;;;;19.06;53.59;99481.50;5004218;28;20033;-68
2023/10/26 11:21:55;;;;;;;7.78;3.60;;;;;;;19.07;53.57;99474.38;5004627;28;20109;-69
2023/10/26 11:24:30;;;;;;;10.55;3.80;;;;;;;19.09;53.46;99469.75;5006376;28;20030;-69
2023/10/26 11:27:05;;;;;;;6.13;3.00;;;;;;;19.08;53.55;99462.84;5006109;28;20116;-68
2023/10/26 11:29:30;;;;;;;8.15;3.70;;;;;;;19.10;53.66;99469.59;5006829;28;20030;-67
2023/10/26 11:31:55;;;;;;;7.90;3.67;;;;;;;19.12;53.59;99470.28;5005835;28;20374;-68